createdAt,value
2023-03-17T00:01:23.298Z,6.40
2023-03-17T00:03:56.257Z,6.40
2023-03-17T00:06:35.003Z,6.30
2023-03-17T00:09:07.822Z,6.30
2023-03-17T00:11:38.143Z,6.30
2023-03-17T00:14:19.338Z,6.20
2023-03-17T00:19:33.416Z,6.10
2023-03-17T00:22:13.294Z,6.00
2023-03-17T00:24:40.741Z,6.00
2023-03-17T00:27:14.557Z,5.90
2023-03-17T00:29:42.336Z,5.90
2023-03-17T00:32:22.442Z,6.00
2023-03-17T00:34:51.584Z,6.00
2023-03-17T00:37:23.230Z,6.10
2023-03-17T00:39:54.324Z,6.00
2023-03-17T00:42:34.043Z,5.90
2023-03-17T00:45:07.879Z,5.90
2023-03-17T00:47:47.002Z,5.90
2023-03-17T00:50:24.589Z,5.90
2023-03-17T00:53:16.253Z,5.90
2023-03-17T00:58:46.094Z,5.60
2023-03-17T01:01:22.569Z,5.50
2023-03-17T01:03:57.380Z,5.50
2023-03-17T01:06:32.634Z,5.40
2023-03-17T01:09:16.746Z,5.40
2023-03-17T01:11:45.429Z,5.40
2023-03-17T01:14:17.001Z,5.40
2023-03-17T01:16:49.268Z,5.50
2023-03-17T01:19:17.412Z,5.50
2023-03-17T01:21:49.092Z,5.70
2023-03-17T01:24:54.218Z,5.70
2023-03-17T01:27:30.391Z,5.70
2023-03-17T01:29:58.570Z,5.70
2023-03-17T01:32:33.474Z,5.50
2023-03-17T01:40:56.168Z,4.90
2023-03-17T01:43:50.167Z,5.00
2023-03-17T01:46:47.379Z,5.10
2023-03-17T01:49:30.983Z,5.10
2023-03-17T01:52:17.752Z,5.20
2023-03-17T01:55:01.119Z,5.20
2023-03-17T01:57:30.994Z,5.10
2023-03-17T02:00:10.316Z,5.10
2023-03-17T02:02:42.289Z,5.10
2023-03-17T02:05:11.896Z,5.10
2023-03-17T02:07:40.181Z,5.00
2023-03-17T02:10:09.382Z,5.00
2023-03-17T02:12:37.596Z,5.00
2023-03-17T02:15:06.456Z,4.90
2023-03-17T02:17:35.011Z,4.80
2023-03-17T02:20:16.889Z,4.80
2023-03-17T02:22:45.111Z,4.90
2023-03-17T02:25:15.626Z,4.80
2023-03-17T02:27:44.087Z,4.80
2023-03-17T02:30:13.605Z,4.90
2023-03-17T02:32:41.034Z,4.80
2023-03-17T02:35:09.546Z,4.90
2023-03-17T02:37:38.494Z,4.90
2023-03-17T02:40:07.522Z,4.90
2023-03-17T02:42:36.227Z,4.80
2023-03-17T02:45:05.368Z,4.70
2023-03-17T02:47:33.002Z,4.60
2023-03-17T02:50:01.254Z,4.70
2023-03-17T02:52:28.801Z,4.70
2023-03-17T02:54:56.831Z,4.80
2023-03-17T02:57:24.536Z,4.70
2023-03-17T02:59:53.845Z,4.70
2023-03-17T03:05:07.186Z,4.70
2023-03-17T03:07:35.175Z,4.60
2023-03-17T03:10:03.859Z,4.70
2023-03-17T03:12:32.461Z,4.50
2023-03-17T03:15:05.538Z,4.50
2023-03-17T03:17:33.252Z,4.60
2023-03-17T03:20:00.432Z,4.60
2023-03-17T03:22:27.676Z,4.50
2023-03-17T03:24:56.745Z,4.40
2023-03-17T03:27:26.740Z,4.40
2023-03-17T03:29:54.975Z,4.40
2023-03-17T03:32:22.062Z,4.40
2023-03-17T03:34:49.374Z,4.30
2023-03-17T03:37:17.509Z,4.30
2023-03-17T03:39:45.001Z,4.30
2023-03-17T03:42:12.404Z,4.30
2023-03-17T03:44:45.270Z,4.30
2023-03-17T03:47:14.270Z,4.20
2023-03-17T03:49:41.931Z,4.10
2023-03-17T03:52:10.512Z,4.00
2023-03-17T03:54:37.765Z,4.00
2023-03-17T03:57:06.333Z,4.00
2023-03-17T03:59:34.235Z,4.00
2023-03-17T04:02:06.495Z,4.00
2023-03-17T04:04:35.263Z,3.90
2023-03-17T04:07:02.494Z,3.90
2023-03-17T04:09:29.680Z,3.90
2023-03-17T04:11:59.541Z,3.90
2023-03-17T04:14:28.793Z,3.90
2023-03-17T04:16:56.456Z,4.00
2023-03-17T04:19:24.242Z,3.90
2023-03-17T04:21:53.527Z,3.90
2023-03-17T04:24:23.004Z,3.80
2023-03-17T04:26:50.421Z,3.70
2023-03-17T04:29:22.138Z,3.70
2023-03-17T04:31:49.659Z,3.70
2023-03-17T04:34:19.117Z,3.60
2023-03-17T04:36:47.378Z,3.70
2023-03-17T04:39:14.914Z,3.70
2023-03-17T04:41:42.306Z,3.70
2023-03-17T04:44:11.718Z,3.60
2023-03-17T04:46:38.791Z,3.50
2023-03-17T04:49:10.142Z,3.60
2023-03-17T04:51:37.224Z,3.60
2023-03-17T04:54:04.619Z,3.60
2023-03-17T04:56:36.504Z,3.60
2023-03-17T04:59:03.898Z,3.50
2023-03-17T05:01:31.301Z,3.50
2023-03-17T05:03:58.664Z,3.50
2023-03-17T05:06:25.971Z,3.50
2023-03-17T05:08:56.452Z,3.50
2023-03-17T05:11:23.656Z,3.40
2023-03-17T05:13:53.369Z,3.40
2023-03-17T05:16:24.173Z,3.30
2023-03-17T05:18:52.169Z,3.30
2023-03-17T05:21:19.600Z,3.40
2023-03-17T05:23:49.909Z,3.50
2023-03-17T05:26:18.992Z,3.50
2023-03-17T05:28:48.988Z,3.60
2023-03-17T05:31:19.351Z,3.60
2023-03-17T05:33:46.906Z,3.60
2023-03-17T05:36:16.990Z,3.70
2023-03-17T05:38:44.653Z,3.80
2023-03-17T05:41:12.386Z,3.90
2023-03-17T05:43:43.006Z,3.90
2023-03-17T05:46:11.361Z,3.90
2023-03-17T05:48:38.681Z,4.00
2023-03-17T05:51:05.970Z,4.00
2023-03-17T05:53:33.189Z,4.10
2023-03-17T05:56:00.375Z,4.20
2023-03-17T05:58:34.854Z,4.40
2023-03-17T06:01:07.031Z,4.50
2023-03-17T06:03:40.767Z,4.60
2023-03-17T06:08:55.268Z,4.80
2023-03-17T06:11:27.641Z,5.00
2023-03-17T06:27:26.463Z,5.40
2023-03-17T06:29:53.877Z,6.30
2023-03-17T06:32:24.801Z,6.40
2023-03-17T06:34:54.918Z,6.40
2023-03-17T06:37:22.497Z,6.50
2023-03-17T06:39:55.682Z,6.50
2023-03-17T06:42:23.685Z,6.60
2023-03-17T06:44:52.825Z,6.70
2023-03-17T06:47:25.808Z,6.90
2023-03-17T06:49:55.228Z,7.00
2023-03-17T06:52:25.958Z,7.00
2023-03-17T06:54:53.168Z,7.00
2023-03-17T06:57:23.967Z,7.20
2023-03-17T06:59:51.880Z,7.30
2023-03-17T07:02:20.265Z,7.50
2023-03-17T07:04:48.265Z,8.00
2023-03-17T07:07:17.726Z,8.60
2023-03-17T07:09:53.013Z,9.40
2023-03-17T07:12:38.269Z,10.60
2023-03-17T07:15:07.042Z,11.90
2023-03-17T07:27:17.801Z,16.70
2023-03-17T07:44:11.815Z,21.80
2023-03-17T07:49:17.323Z,23.20
2023-03-17T07:51:49.182Z,23.60
2023-03-17T07:54:32.725Z,23.70
2023-03-17T07:57:01.657Z,23.90
2023-03-17T07:59:32.674Z,24.00
2023-03-17T08:02:03.941Z,24.20
2023-03-17T08:04:32.799Z,24.60
2023-03-17T08:09:57.556Z,26.00
2023-03-17T08:12:38.570Z,26.20
2023-03-17T08:15:11.446Z,26.30
2023-03-17T08:17:45.181Z,26.50
2023-03-17T08:28:53.040Z,28.10
2023-03-17T08:31:21.437Z,28.00
2023-03-17T08:33:52.888Z,27.70
2023-03-17T08:39:11.369Z,27.90
2023-03-17T08:50:03.154Z,30.00
2023-03-17T08:52:36.153Z,30.20
2023-03-17T08:55:06.928Z,30.40
2023-03-17T08:57:37.504Z,30.80
2023-03-17T09:00:11.223Z,31.00
2023-03-17T09:02:39.648Z,31.10
2023-03-17T09:05:08.565Z,31.30
2023-03-17T09:07:43.919Z,30.80
2023-03-17T09:10:12.200Z,30.70
2023-03-17T09:12:39.454Z,30.40
2023-03-17T09:15:07.879Z,30.00
2023-03-17T09:17:35.081Z,30.30
2023-03-17T09:20:02.413Z,30.30
2023-03-17T09:22:29.608Z,30.20
2023-03-17T09:24:56.726Z,30.50
2023-03-17T09:27:23.913Z,31.20
2023-03-17T09:29:51.353Z,31.00
2023-03-17T09:32:18.474Z,31.20
2023-03-17T09:34:51.296Z,31.50
2023-03-17T09:37:18.853Z,32.00
2023-03-17T09:39:55.397Z,32.80
2023-03-17T09:42:40.766Z,33.60
2023-03-17T09:45:14.457Z,34.10
2023-03-17T09:47:47.992Z,34.20
2023-03-17T09:50:25.490Z,34.20
2023-03-17T09:52:53.243Z,34.10
2023-03-17T09:55:34.413Z,33.80
2023-03-17T09:58:03.535Z,33.70
2023-03-17T10:00:32.113Z,34.00
2023-03-17T10:03:02.070Z,34.10
2023-03-17T10:05:31.163Z,33.80
2023-03-17T10:08:22.644Z,33.90
2023-03-17T10:11:23.641Z,33.40
2023-03-17T10:14:08.627Z,33.20
2023-03-17T10:16:51.494Z,33.20
2023-03-17T10:19:27.607Z,32.50
2023-03-17T10:22:01.593Z,31.40
2023-03-17T10:24:31.173Z,31.80
2023-03-17T10:26:59.569Z,32.00
2023-03-17T10:29:26.762Z,32.60
2023-03-17T10:31:56.326Z,33.00
2023-03-17T10:34:36.670Z,33.10
2023-03-17T10:39:56.972Z,34.00
2023-03-17T10:42:29.348Z,33.50
2023-03-17T10:44:58.017Z,33.40
2023-03-17T10:47:30.070Z,33.70
2023-03-17T10:49:58.246Z,34.10
2023-03-17T10:52:36.853Z,34.80
2023-03-17T10:55:08.245Z,35.20
2023-03-17T10:57:37.840Z,35.80
2023-03-17T11:00:20.115Z,34.90
2023-03-17T11:02:57.348Z,34.50
2023-03-17T11:05:29.372Z,34.00
2023-03-17T11:08:11.503Z,33.70
2023-03-17T11:10:40.031Z,32.70
2023-03-17T11:13:07.205Z,32.80
2023-03-17T11:16:08.582Z,32.80
2023-03-17T11:18:37.812Z,33.10
2023-03-17T11:21:11.788Z,33.20
2023-03-17T11:23:52.366Z,34.00
2023-03-17T11:26:29.050Z,35.00
2023-03-17T11:29:38.602Z,35.40
2023-03-17T11:32:20.409Z,34.90
2023-03-17T11:35:38.815Z,34.80
2023-03-17T11:38:28.791Z,35.50
2023-03-17T11:41:05.563Z,35.20
2023-03-17T11:44:21.645Z,34.60
2023-03-17T11:47:24.019Z,34.20
2023-03-17T11:50:20.811Z,34.40
2023-03-17T11:52:59.313Z,34.60
2023-03-17T11:55:33.796Z,35.00
2023-03-17T11:58:06.261Z,35.30
2023-03-17T12:00:34.995Z,35.80
2023-03-17T12:03:09.121Z,36.10
2023-03-17T12:05:37.370Z,36.80
2023-03-17T12:08:31.937Z,37.30
2023-03-17T12:11:01.189Z,37.80
2023-03-17T12:13:45.661Z,37.80
2023-03-17T12:16:34.677Z,37.70
2023-03-17T12:19:43.189Z,37.20
2023-03-17T12:22:31.111Z,37.00
2023-03-17T12:25:05.088Z,36.20
2023-03-17T12:27:44.692Z,35.40
2023-03-17T12:30:17.754Z,35.40
2023-03-17T12:33:09.807Z,36.00
2023-03-17T12:35:41.166Z,36.30
2023-03-17T12:38:57.089Z,36.60
2023-03-17T12:41:33.897Z,36.90
2023-03-17T12:44:21.971Z,36.40
2023-03-17T12:46:58.422Z,36.20
2023-03-17T12:49:56.400Z,36.10
2023-03-17T12:52:35.157Z,35.40
2023-03-17T12:55:02.802Z,34.30
2023-03-17T12:57:39.621Z,33.80
2023-03-17T13:00:20.489Z,34.30
2023-03-17T13:03:08.165Z,34.60
2023-03-17T13:05:38.080Z,34.20
2023-03-17T13:08:09.346Z,33.60
2023-03-17T13:10:44.729Z,32.60
2023-03-17T13:13:30.971Z,32.50
2023-03-17T13:16:00.573Z,32.90
2023-03-17T13:18:35.194Z,32.00
2023-03-17T13:21:03.729Z,31.80
2023-03-17T13:23:48.519Z,30.50
2023-03-17T13:26:19.427Z,30.20
2023-03-17T13:28:48.932Z,29.70
2023-03-17T13:31:29.311Z,29.40
2023-03-17T13:33:56.869Z,29.40
2023-03-17T13:37:05.896Z,29.60
2023-03-17T13:39:52.421Z,29.30
2023-03-17T13:42:26.296Z,28.30
2023-03-17T13:45:05.696Z,27.50
2023-03-17T13:47:35.035Z,27.50
2023-03-17T13:50:17.339Z,28.10
2023-03-17T13:59:22.703Z,28.60
2023-03-17T14:04:36.057Z,28.80
2023-03-17T14:12:38.365Z,29.10
2023-03-17T15:23:58.042Z,21.80
2023-03-17T15:26:49.847Z,21.40
2023-03-17T15:40:20.457Z,20.10
2023-03-17T15:42:47.664Z,19.90
2023-03-17T15:45:17.155Z,19.80
2023-03-17T15:47:47.564Z,19.60
2023-03-17T15:50:22.095Z,19.40
2023-03-17T15:52:49.437Z,19.40
2023-03-17T15:55:24.096Z,19.30
2023-03-17T15:57:57.004Z,19.30
2023-03-17T16:00:25.523Z,19.20
2023-03-17T16:02:57.713Z,19.20
2023-03-17T16:05:32.134Z,19.00
2023-03-17T16:08:02.547Z,18.80
2023-03-17T16:10:47.579Z,18.60
2023-03-17T16:13:17.483Z,18.40
2023-03-17T16:15:48.611Z,18.20
2023-03-17T16:18:31.847Z,18.10
2023-03-17T16:21:11.446Z,17.90
2023-03-17T16:23:39.054Z,17.80
2023-03-17T16:26:15.859Z,17.70
2023-03-17T16:28:45.726Z,17.60
2023-03-17T16:31:25.101Z,17.60
2023-03-17T16:33:55.258Z,17.50
2023-03-17T16:36:24.401Z,17.20
2023-03-17T16:38:57.765Z,17.00
2023-03-17T16:41:27.695Z,16.80
2023-03-17T16:44:00.195Z,16.60
2023-03-17T16:46:28.665Z,16.50
2023-03-17T16:48:56.366Z,16.40
2023-03-17T16:51:25.109Z,16.30
2023-03-17T16:53:52.626Z,16.10
2023-03-17T16:56:22.610Z,16.10
2023-03-17T16:59:09.374Z,16.00
2023-03-17T17:01:36.531Z,15.90
2023-03-17T17:04:03.899Z,15.80
2023-03-17T17:06:37.401Z,15.70
2023-03-17T17:09:07.304Z,15.70
2023-03-17T17:11:35.149Z,15.60
2023-03-17T17:14:05.883Z,15.50
2023-03-17T17:16:35.225Z,15.50
2023-03-17T17:19:03.927Z,15.40
2023-03-17T17:21:32.534Z,15.40
2023-03-17T17:23:59.986Z,15.40
2023-03-17T17:26:27.556Z,15.40
2023-03-17T17:28:58.411Z,15.30
2023-03-17T17:31:30.139Z,15.40
2023-03-17T17:34:05.144Z,15.30
2023-03-17T17:36:32.461Z,15.30
2023-03-17T17:39:00.306Z,15.30
2023-03-17T17:41:37.232Z,15.30
2023-03-17T17:44:06.036Z,15.30
2023-03-17T17:46:33.694Z,15.20
2023-03-17T17:49:01.354Z,15.20
2023-03-17T17:51:29.078Z,15.10
2023-03-17T17:53:57.342Z,15.10
2023-03-17T17:56:25.888Z,15.10
2023-03-17T17:58:56.136Z,15.00
2023-03-17T18:01:23.606Z,15.00
2023-03-17T18:03:51.115Z,14.90
2023-03-17T18:06:18.355Z,14.90
2023-03-17T18:08:45.732Z,14.80
2023-03-17T18:11:18.721Z,14.70
2023-03-17T18:13:46.104Z,14.60
2023-03-17T18:16:15.782Z,14.60
2023-03-17T18:18:45.749Z,14.40
2023-03-17T18:21:13.693Z,14.30
2023-03-17T18:23:47.170Z,14.20
2023-03-17T18:26:15.350Z,14.10
2023-03-17T18:28:43.207Z,14.00
2023-03-17T18:31:15.371Z,13.90
2023-03-17T18:33:44.949Z,13.80
2023-03-17T18:36:12.507Z,13.70
2023-03-17T18:38:40.065Z,13.60
2023-03-17T18:41:08.658Z,13.50
2023-03-17T18:43:37.390Z,13.30
2023-03-17T18:46:04.961Z,13.30
2023-03-17T18:48:32.357Z,13.30
2023-03-17T18:50:59.998Z,13.30
2023-03-17T18:53:32.494Z,13.30
2023-03-17T18:56:02.704Z,13.20
2023-03-17T18:58:32.567Z,13.20
2023-03-17T19:01:08.506Z,13.10
2023-03-17T19:03:38.044Z,13.00
2023-03-17T19:06:13.217Z,13.00
2023-03-17T19:08:41.040Z,13.00
2023-03-17T19:11:09.165Z,13.00
2023-03-17T19:13:37.114Z,12.90
2023-03-17T19:16:05.156Z,12.90
2023-03-17T19:18:33.085Z,12.80
2023-03-17T19:21:00.325Z,12.90
2023-03-17T19:23:28.680Z,12.90
2023-03-17T19:25:55.997Z,12.80
2023-03-17T19:28:23.387Z,12.70
2023-03-17T19:30:50.815Z,12.60
2023-03-17T19:33:18.356Z,12.50
2023-03-17T19:35:45.705Z,12.40
2023-03-17T19:38:17.260Z,12.40
2023-03-17T19:40:44.466Z,12.30
2023-03-17T19:43:11.766Z,12.20
2023-03-17T19:45:38.951Z,12.10
2023-03-17T19:48:06.478Z,12.00
2023-03-17T19:50:33.896Z,11.90
2023-03-17T19:53:01.448Z,11.90
2023-03-17T19:55:29.653Z,11.70
2023-03-17T19:57:56.866Z,11.80
2023-03-17T20:00:24.532Z,11.80
2023-03-17T20:02:51.904Z,11.80
2023-03-17T20:05:19.299Z,11.80
2023-03-17T20:07:46.791Z,11.70
2023-03-17T20:10:14.163Z,11.70
2023-03-17T20:12:43.610Z,11.50
2023-03-17T20:15:13.261Z,11.50
2023-03-17T20:17:41.149Z,11.40
2023-03-17T20:20:10.805Z,11.30
2023-03-17T20:22:40.449Z,11.20
2023-03-17T20:25:10.468Z,11.10
2023-03-17T20:27:38.240Z,11.10
2023-03-17T20:30:06.024Z,10.90
2023-03-17T20:32:34.649Z,10.70
2023-03-17T20:35:02.927Z,10.40
2023-03-17T20:37:31.222Z,10.40
2023-03-17T20:40:01.379Z,10.60
2023-03-17T20:42:29.312Z,10.60
2023-03-17T20:44:57.028Z,10.50
2023-03-17T20:47:24.375Z,10.50
2023-03-17T20:49:53.292Z,10.50
2023-03-17T20:52:22.802Z,10.50
2023-03-17T20:54:51.029Z,10.50
2023-03-17T20:57:18.955Z,10.40
2023-03-17T20:59:46.235Z,10.40
2023-03-17T21:02:17.760Z,10.40
2023-03-17T21:04:47.858Z,10.30
2023-03-17T21:07:21.440Z,10.20
2023-03-17T21:09:49.921Z,10.10
2023-03-17T21:12:19.072Z,10.00
2023-03-17T21:14:48.538Z,10.00
2023-03-17T21:17:16.495Z,10.00
2023-03-17T21:19:44.346Z,10.00
2023-03-17T21:22:12.664Z,9.90
2023-03-17T21:24:40.091Z,9.90
2023-03-17T21:27:10.082Z,9.90
2023-03-17T21:29:37.329Z,9.80
2023-03-17T21:32:07.998Z,9.70
2023-03-17T21:34:38.311Z,9.60
2023-03-17T21:37:06.783Z,9.50
2023-03-17T21:39:34.165Z,9.50
2023-03-17T21:42:13.597Z,9.50
2023-03-17T21:44:40.839Z,9.40
2023-03-17T21:47:09.946Z,9.30
2023-03-17T21:49:40.029Z,9.30
2023-03-17T21:52:07.539Z,9.30
2023-03-17T21:54:35.395Z,9.30
2023-03-17T21:57:02.680Z,9.30
2023-03-17T21:59:32.060Z,9.30
2023-03-17T22:02:00.186Z,9.30
2023-03-17T22:04:38.488Z,9.30
2023-03-17T22:07:05.780Z,9.30
2023-03-17T22:09:32.988Z,9.30
2023-03-17T22:12:00.145Z,9.30
2023-03-17T22:17:08.582Z,9.10
2023-03-17T22:19:36.205Z,9.10
2023-03-17T22:22:04.108Z,9.20
2023-03-17T22:24:32.751Z,9.20
2023-03-17T22:26:59.906Z,9.20
2023-03-17T22:29:27.314Z,9.10
2023-03-17T22:31:54.778Z,9.00
2023-03-17T22:34:22.027Z,8.90
2023-03-17T22:36:49.045Z,8.90
2023-03-17T22:39:19.279Z,8.80
2023-03-17T22:41:46.935Z,8.80
2023-03-17T22:44:20.525Z,8.70
2023-03-17T22:46:48.044Z,8.80
2023-03-17T22:49:15.290Z,8.80
2023-03-17T22:51:42.956Z,8.70
2023-03-17T22:54:11.898Z,8.70
2023-03-17T22:56:42.236Z,8.70
2023-03-17T22:59:09.667Z,8.60
2023-03-17T23:01:36.857Z,8.60
2023-03-17T23:04:04.705Z,8.50
2023-03-17T23:06:32.029Z,8.50
2023-03-17T23:08:59.285Z,8.50
2023-03-17T23:11:26.788Z,8.40
2023-03-17T23:13:54.302Z,8.30
2023-03-17T23:16:22.689Z,8.40
2023-03-17T23:18:51.068Z,8.50
2023-03-17T23:21:30.797Z,8.40
2023-03-17T23:23:58.261Z,8.40
2023-03-17T23:26:25.988Z,8.40
2023-03-17T23:28:53.207Z,8.30
2023-03-17T23:31:20.866Z,8.30
2023-03-17T23:33:48.619Z,8.30
2023-03-17T23:36:18.934Z,8.20
2023-03-17T23:38:48.999Z,8.00
2023-03-17T23:41:16.467Z,7.80
2023-03-17T23:43:44.195Z,7.60
2023-03-17T23:46:15.179Z,7.50
2023-03-17T23:48:43.141Z,7.40
2023-03-17T23:51:14.513Z,7.50
2023-03-17T23:53:44.853Z,7.60
2023-03-17T23:56:13.250Z,7.70
2023-03-17T23:58:42.627Z,7.80
